Takefusa Kawashima

Olheiro-Chefe - Urawa Reds
4 Abr 2027
Domingo
Processo

Personalidade

Adaptabilidade (14) Ambição (10) Controvérsia (3) Lealdade (8) Pressão (8) Profissionalismo (6) Espírito Esportivo (3) Temperamento (9)

Perfil

Estilo de Treinamento Democrático
Licença Continental Pro
Determinação 5
Gestão de Pessoas 11
Motivação 6
Disciplina 12
Satisfação no Trabalho
50%
Fadiga
0%
Função Olheiro-Chefe
Salário 61.2K p/s
Contrato 14.03.2030

Desempenho

Comportamento Normal
Eficácia do Treinamento
24%
Desenvolvimento do Jogador
65%
Prevenção de Lesões
25%
Implementação Tática
50%

Eventos Recentes

Avaliou um jogador agora
Participou de uma reunião de recrutamento agora
Avaliou um jogador agora
Avaliou um jogador agora
Avaliou um jogador agora
Avaliou um jogador 7d atrás
Avaliou um jogador 7d atrás
Avaliou um jogador 7d atrás

Monitorando agora

246
Jogador Clube Status Habilidade Confiança Observado Última observação Último voto
Salah Mohsen El Masry Ativo 134 / 122 40% 3 03.04.2027 -
Yousef Salech Cardiff City Ativo 118 / 121 40% 3 03.04.2027 -
Largie Ramazani Leeds United Ativo 152 / 132 40% 3 02.04.2027 -
Karlan Grant West Bromwich Albion Ativo 128 / 120 40% 5 02.04.2027 -
Adam Wharton Crystal Palace Ativo 146 / 147 40% 1 01.04.2027 -
Tristan Crama Millwall Ativo 115 / 124 40% 1 01.04.2027 -
Mathias Jørgensen Blackburn Rovers Ativo 122 / 121 40% 1 01.04.2027 -
Morgan Whittaker Middlesbrough Ativo 118 / 129 40% 1 01.04.2027 -
Tom Cannon Sheffield United Ativo 124 / 123 40% 2 31.03.2027 -
Che Adams Torino Ativo 125 / 144 40% 1 31.03.2027 -
Tyrese Campbell Sheffield United Ativo 134 / 119 40% 1 29.03.2027 -
Zakaria Aboukhlal Torino Ativo 145 / 130 40% 1 29.03.2027 -
Percy Erasmus SuperSport United Ativo 127 / 125 40% 4 28.03.2027 -
Ronan Hale Gillingham Ativo 119 / 108 40% 1 28.03.2027 -
Elijah Adebayo Luton Town Ativo 114 / 121 40% 2 27.03.2027 -
George Hirst Stoke City Ativo 141 / 126 40% 2 26.03.2027 -
Camilo Durán Bloemfontein Celtic Ativo 113 / 116 40% 3 23.03.2027 -
Itumeleng Tau Ajax Cape Town Ativo 127 / 124 40% 2 23.03.2027 -
Adrien Truffert Bournemouth Ativo 138 / 157 40% 1 23.03.2027 -
Issa Kaboré Wrexham Ativo 120 / 132 40% 1 23.03.2027 -
Nico Paz Como Ativo 144 / 166 40% 1 22.03.2027 -
Juanlu Bournemouth Ativo 135 / 149 40% 1 22.03.2027 -
Florentino Luís Ipswich Town Ativo 138 / 140 40% 1 22.03.2027 -
Cristian Shpendi Cesena Ativo 134 / 127 40% 1 19.03.2027 -
Dany Mota Monza Ativo 119 / 127 40% 2 18.03.2027 -
Tamerlan Musaev CSKA Moscow Ativo 125 / 118 40% 1 17.03.2027 -
Tasos Douvikas Como Ativo 146 / 150 40% 1 17.03.2027 -
Zeki Amdouni Burnley Ativo 137 / 138 40% 2 16.03.2027 -
Mathias Kvistgaarden Norwich City Ativo 109 / 123 40% 2 16.03.2027 -
Yuki Kakita FC Copenhagen Ativo 116 / 131 40% 6 15.03.2027 -
Kyle Wootton Stockport County Ativo 118 / 117 40% 1 15.03.2027 -
Jean-Luc Morin Tours Ativo 139 / 132 40% 1 14.03.2027 -
Sam Greenwood Bristol City Ativo 119 / 128 40% 1 14.03.2027 -
Niall Ennis Blackpool Ativo 107 / 110 40% 2 12.03.2027 -
Dominic Calvert-Lewin Leeds United Ativo 150 / 145 40% 1 12.03.2027 -
Iqraam Rayners Mamelodi Sundowns Ativo 123 / 125 40% 3 11.03.2027 -
Eddie Nketiah Crystal Palace Ativo 151 / 132 40% 1 09.03.2027 -
Cameron Archer Southampton Ativo 126 / 128 40% 1 09.03.2027 -
Ross McCrorie Bristol City Ativo 137 / 117 40% 1 09.03.2027 -
Shea Charles Southampton Ativo 134 / 138 40% 1 09.03.2027 -
Éderson Atalanta Ativo 159 / 158 40% 1 08.03.2027 -
Kayne Ramsay Charlton Athletic Ativo 110 / 130 40% 1 08.03.2027 -
Achraf Bencharki Al Ahly Ativo 142 / 118 40% 5 06.03.2027 -
Xaver Schlager Nottingham Forest Ativo 153 / 152 40% 2 06.03.2027 -
Ousmane Diomande Nottingham Forest Ativo 155 / 160 40% 1 06.03.2027 -
Ismaïla Sarr Crystal Palace Ativo 164 / 152 40% 1 06.03.2027 -
Nobel Mendy Hull City Ativo 124 / 135 40% 1 05.03.2027 -
Alfie Doughty Millwall Ativo 118 / 137 40% 1 05.03.2027 -
Callum O'Hare Sheffield United Ativo 145 / 135 40% 1 05.03.2027 -
Emil Riis Bristol City Ativo 124 / 115 40% 1 05.03.2027 -
Rumarn Burrell Queens Park Rangers Ativo 113 / 115 40% 1 03.03.2027 -
Thierno Barry Everton Ativo 137 / 136 40% 1 27.02.2027 -
Harry Clarke Preston Ativo 138 / 135 40% 1 25.02.2027 -
Haji Wright Coventry City Ativo 135 / 140 40% 1 25.02.2027 -
Gianluca Scamacca Atalanta Ativo 150 / 155 40% 1 24.02.2027 -
Imrân Louza Watford Ativo 129 / 130 40% 1 23.02.2027 -
Derry Murkin Derby County Ativo 129 / 135 40% 1 23.02.2027 -
Giacomo Raspadori Atalanta Ativo 142 / 139 40% 1 21.02.2027 -
Alberto Cerri Cesena Ativo 133 / 122 40% 1 19.02.2027 -
Joel Pohjanpalo Palermo Ativo 145 / 131 40% 1 19.02.2027 -
Frédéric Maciel CSKA 1948 Ativo 112 / 112 40% 2 18.02.2027 -
Diego Valencia Gornik Leczna Ativo 122 / 105 40% 2 18.02.2027 -
Joel Pereira Lech Ativo 121 / 123 40% 1 17.02.2027 -
Georgie Gent Barnsley Ativo 118 / 106 40% 1 17.02.2027 -
Ihor Krasnopir Polissia Ativo 108 / 121 40% 1 17.02.2027 -
Oleksii Hutsuliak Polissia Ativo 134 / 120 40% 2 16.02.2027 -
Matteo Rover Reggiana Ativo 106 / 116 40% 1 16.02.2027 -
Tomáš Chorý Slavia Prague Ativo 136 / 145 40% 4 15.02.2027 -
Josh Dacres-Cogley Stockport County Ativo 115 / 102 40% 1 14.02.2027 -
Kortney Hause Luton Town Ativo 124 / 121 40% 1 14.02.2027 -
Nardin Mulahusejnović Vojvodina Ativo 127 / 120 40% 7 11.02.2027 -
Alexandr Sojka Viktoria Plzen Ativo 120 / 118 40% 4 11.02.2027 -
Lassina Traoré Shakhtar Ativo 110 / 121 40% 2 10.02.2027 -
Andrii Poniedielnik Kolos Ativo 111 / 107 40% 1 10.02.2027 -
Joe Wright Bradford City Ativo 117 / 106 40% 1 10.02.2027 -
Mattia Bortolussi Padova Ativo 127 / 114 40% 1 10.02.2027 -
Bienvenue Kanakimana Zbrojovka Brno Ativo 117 / 118 40% 2 08.02.2027 -
Giuseppe Panico Foggia Ativo 107 / 105 40% 2 08.02.2027 -
Kaito Taniguchi Central Coast Mariners Ativo 110 / 117 40% 1 06.02.2027 -
Giovanni Simeone Torino Ativo 144 / 144 40% 1 06.02.2027 -
Moses Cobnan Krasnodar Ativo 115 / 115 40% 1 04.02.2027 -
Róbert Polievka MTK Budapest Ativo 117 / 108 40% 1 03.02.2027 -
Matyáš Vojta Sparta Prague Ativo 121 / 120 40% 4 02.02.2027 -
Rodrigo Conceição Jagiellonia Ativo 128 / 118 40% 2 02.02.2027 -
Salvador Blopá Sporting CP Ativo 131 / 117 40% 1 02.02.2027 -
Oleksandr Yatsyk Metalist Ativo 116 / 116 40% 1 01.02.2027 -
Dmytro Kryskiv Shakhtar Ativo 131 / 128 40% 1 01.02.2027 -
Yuma Suzuki Kashima Antlers Ativo 127 / 137 40% 2 31.01.2027 -
Leandro Godoy CSKA Sofia Ativo 120 / 115 40% 2 29.01.2027 -
Nicolás Fernández Belgrano Ativo 117 / 121 40% 1 29.01.2027 -
Dominik Piła Cracovia Ativo 118 / 109 40% 1 29.01.2027 -
Rúben Vinagre Legia Ativo 106 / 111 40% 2 28.01.2027 -
Diego Murillo Málaga Ativo 120 / 111 40% 1 28.01.2027 -
Brayan Gil Baltika Ativo 121 / 119 40% 4 26.01.2027 -
Mikhail Ignatov Sochi Ativo 115 / 119 40% 1 26.01.2027 -
John Okoye Ebuka Ittihad Ativo 133 / 114 40% 2 25.01.2027 -
Luis Palma Lech Ativo 126 / 117 40% 1 24.01.2027 -
Camillo Tavernelli Arezzo Ativo 106 / 112 40% 1 23.01.2027 -
Takuma Asano Sanfrecce Hiroshima Ativo 135 / 138 40% 6 22.01.2027 -
Kacper Urbański Gornik Zabrze Ativo 121 / 125 40% 1 19.01.2027 -
Rok Zajc NK Domzale Ativo 115 / 126 40% 1 19.01.2027 -
Njegoš Petrović Vojvodina Ativo 129 / 125 40% 2 17.01.2027 -
Leo Goglichidze Rodina Ativo 109 / 108 40% 2 16.01.2027 -
Merchas Doski Viktoria Plzen Ativo 122 / 119 40% 1 16.01.2027 -
Mihailo Ristić Crvena Zvezda Ativo 136 / 134 40% 1 15.01.2027 -
Daniel Phillips Stevenage Ativo 104 / 106 40% 1 14.01.2027 -
Doğucan Haspolat Westerlo Ativo 137 / 122 40% 1 14.01.2027 -
Václav Jurečka Banik Ostrava Ativo 120 / 112 40% 3 13.01.2027 -
Emam Ashour Al Ahly Ativo 133 / 132 40% 1 13.01.2027 -
Victor Bak FC Midtjylland Ativo 108 / 133 40% 1 13.01.2027 -
Ramadan Mohsen Zamalek Ativo 133 / 125 40% 1 13.01.2027 -
Luther Billiat Ajax Cape Town Ativo 110 / 133 40% 2 11.01.2027 -
Lindon Emërllahu Polissia Ativo 109 / 127 40% 2 11.01.2027 -
Marwan Ateya Al Ahly Ativo 135 / 121 40% 2 10.01.2027 -
Miroslav Bogosavac Akhmat Grozny Ativo 120 / 116 40% 1 10.01.2027 -
Aaron Morley Wycombe Wanderers Ativo 130 / 118 40% 2 09.01.2027 -
Mihály Kata MTK Budapest Ativo 118 / 114 40% 1 08.01.2027 -
Ignacio Vázquez Platense Ativo 117 / 136 40% 1 08.01.2027 -
Hakeem Odoffin Luton Town Ativo 113 / 109 40% 1 06.01.2027 -
Khuliso Mudau Mamelodi Sundowns Ativo 139 / 131 40% 1 06.01.2027 -
Koki Ogawa Jubilo Iwata Ativo 128 / 126 40% 1 06.01.2027 -
Diego Valdés Vélez Ativo 146 / 136 40% 2 02.01.2027 -
Edward Chilufya FC Midtjylland Ativo 112 / 108 40% 1 01.01.2027 -
Ryo Germain Sanfrecce Hiroshima Ativo 120 / 133 40% 5 31.12.2026 -
Max Meyer APOEL Ativo 119 / 112 40% 1 31.12.2026 -
Tommaso Biasci Avellino Ativo 131 / 120 40% 1 31.12.2026 -
Álex Arce Independiente Rivadavia Ativo 115 / 129 40% 2 30.12.2026 -
Dani Gómez Zaragoza Ativo 109 / 109 40% 1 30.12.2026 -
Mariusz Stępiński Korona Ativo 120 / 115 40% 2 28.12.2026 -
Alex Bass Peterborough United Ativo 97 / 117 40% 1 28.12.2026 -
Lukas Gütlbauer Wolfsberger AC Ativo 122 / 114 40% 1 28.12.2026 -
Tedi Cara LNZ Ativo 105 / 111 40% 1 27.12.2026 -
Jed Wallace West Bromwich Albion Ativo 111 / 118 40% 1 27.12.2026 -
Daniel Kyerewaa Reading Ativo 130 / 102 40% 1 26.12.2026 -
Juan Bezerra Zamalek Ativo 106 / 128 40% 1 26.12.2026 -
Gonzalo Carneiro Dinamo Zagreb Ativo 111 / 126 40% 3 24.12.2026 -
Facundo Suárez Instituto Ativo 140 / 113 40% 3 24.12.2026 -
Kristian Eriksen Molde Ativo 130 / 128 40% 2 23.12.2026 -
Yusuke Segawa Kashiwa Reysol Ativo 125 / 123 40% 6 21.12.2026 -
Ştefan Baiaram Universitatea Craiova Ativo 125 / 121 40% 2 21.12.2026 -
Šimon Gabriel Slovan Liberec Ativo 113 / 122 40% 1 21.12.2026 -
John Swift Portsmouth Ativo 107 / 113 40% 1 21.12.2026 -
Assad Al Hamlawi Universitatea Craiova Ativo 117 / 122 40% 3 16.12.2026 -
Nikolay Komlichenko Lokomotiv Moscow Ativo 127 / 121 40% 3 16.12.2026 -
Ioannis Pittas CSKA Sofia Ativo 115 / 122 40% 3 14.12.2026 -
Jacques Siwe Rubin Ativo 119 / 115 40% 1 14.12.2026 -
Tomás Molina Argentinos Juniors Ativo 114 / 134 40% 2 13.12.2026 -
Alexis Alégué Zbrojovka Brno Ativo 130 / 116 40% 1 13.12.2026 -
Akinkunmi Amoo Ismaily Ativo 131 / 112 40% 1 13.12.2026 -
Filip Kubala Banik Ostrava Ativo 116 / 126 40% 2 11.12.2026 -
Alexander Díaz Deportivo Riestra Ativo 108 / 117 40% 2 11.12.2026 -
Dan Biton Hapoel Beer Sheva Ativo 141 / 122 40% 1 10.12.2026 -
Lebohang Maboe Kaizer Chiefs Ativo 126 / 105 40% 1 10.12.2026 -
Jonás Acevedo Instituto Ativo 121 / 111 40% 3 09.12.2026 -
Shu Morooka Avispa Fukuoka Ativo 118 / 122 40% 4 07.12.2026 -
Nikolas Dyhr Randers Ativo 124 / 127 40% 1 06.12.2026 -
Ramiro Ruiz Rodríguez Atlético Tucumán Ativo 118 / 118 40% 2 02.12.2026 -
George Puşcaş Dinamo Bucharest Ativo 119 / 123 40% 5 01.12.2026 -
Jack Currie Oxford United Ativo 121 / 118 40% 2 30.11.2026 -
Keagan Hlatshwayo SuperSport United Ativo 106 / 125 40% 1 30.11.2026 -
Ignacio Ramírez Newell's Old Boys Ativo 138 / 123 40% 1 28.11.2026 -
Denis Bouanga Los Angeles Football Club Ativo 119 / 129 40% 1 26.11.2026 -
Daniel Karlsbakk Sarpsborg 08 Ativo 122 / 133 40% 1 25.11.2026 -
Jordan Morris Seattle Sounders Ativo 135 / 121 40% 1 25.11.2026 -
Yota Maejima Avispa Fukuoka Ativo 110 / 121 40% 2 24.11.2026 -
Marcelo Torres Gimnasia La Plata Ativo 131 / 110 40% 3 24.11.2026 -
Derik Lacerda Kawasaki Frontale Ativo 123 / 119 40% 1 24.11.2026 -
Alex Luna Instituto Ativo 143 / 127 40% 1 24.11.2026 -
David Barbona Defensa y Justicia Ativo 123 / 129 40% 4 22.11.2026 -
Haris Tabaković Red Bull Salzburg Ativo 136 / 134 40% 1 22.11.2026 -
Antony Alonso Deportivo Riestra Ativo 130 / 130 40% 1 21.11.2026 -
Aitor Cantalapiedra OFI Ativo 127 / 121 40% 1 21.11.2026 -
Ryan Wintle Milton Keynes Dons Ativo 105 / 113 40% 1 20.11.2026 -
Fernando Valenzuela Queretaro Ativo 113 / 119 40% 2 18.11.2026 -
Leo Ceara Kashima Antlers Ativo 144 / 128 40% 4 18.11.2026 -
Tomás Fernández Aldosivi Ativo 131 / 115 40% 1 18.11.2026 -
Franco Cristaldo Talleres Ativo 133 / 115 40% 1 18.11.2026 -
Lucas Angelini Temperley Ativo 125 / 107 40% 1 18.11.2026 -
Ulrik Yttergård Jenssen OB Ativo 119 / 111 40% 1 18.11.2026 -
Jonas Auer Rapid Wien Ativo 100 / 111 40% 1 15.11.2026 -
Hijiri Kato Omiya Ardija Ativo 114 / 121 40% 1 15.11.2026 -
Nicolás Cordero Aldosivi Ativo 135 / 107 40% 1 14.11.2026 -
Santiago Rodríguez Gimnasia y Esgrima Ativo 136 / 116 40% 1 11.11.2026 -
Yota Komi Kashiwa Reysol Ativo 130 / 129 40% 3 09.11.2026 -
Keagan Mothiba SuperSport United Ativo 106 / 120 40% 2 09.11.2026 -
Veton Berisha Viking Ativo 103 / 112 40% 2 08.11.2026 -
Ole Sæter Valerenga Ativo 122 / 123 40% 1 07.11.2026 -
Erik Prekop Gornik Zabrze Ativo 130 / 126 40% 1 07.11.2026 -
Victor Olatunji Real Salt Lake Ativo 116 / 108 40% 1 06.11.2026 -
Dino Islamović Rosenborg Ativo 120 / 108 40% 2 05.11.2026 -
Kento Misao Kashima Antlers Ativo 116 / 116 40% 1 03.11.2026 -
Dario Vizinger NK Maribor Ativo 115 / 113 40% 1 03.11.2026 -
Mateus Castro Nagoya Grampus Ativo 122 / 124 40% 1 31.10.2026 -
François Kamano Sochi Ativo 108 / 119 40% 1 30.10.2026 -
Siyanda Ndlovu Hearts of Oak Ativo 119 / 105 40% 1 29.10.2026 -
Timo Werner San Jose Earthquakes Ativo 121 / 117 40% 2 27.10.2026 -
Thapelo Maseko FC Copenhagen Ativo 110 / 110 40% 1 27.10.2026 -
Ondřej Lingr Korona Ativo 132 / 119 40% 1 24.10.2026 -
Kauã Elias Shakhtar Ativo 130 / 137 40% 2 23.10.2026 -
Diego García Malmo FF Ativo 115 / 113 40% 2 21.10.2026 -
Marcus Ingvartsen San Diego Football Club Ativo 118 / 114 40% 3 20.10.2026 -
Adrian Svanbäck BK Hacken Ativo 129 / 128 40% 1 20.10.2026 -
Kimito Nono Gamba Osaka Ativo 127 / 119 40% 3 19.10.2026 -
Everton Galdino Vegalta Sendai Ativo 107 / 110 40% 1 17.10.2026 -
Yuta Goke Vissel Kobe Ativo 114 / 118 40% 1 17.10.2026 -
Aleksandar Cavric Kashima Antlers Ativo 122 / 121 40% 2 13.10.2026 -
Dean David Yokohama F. Marinos Ativo 117 / 117 40% 1 13.10.2026 -
Prince Owusu CF Montreal Ativo 99 / 119 40% 1 10.10.2026 -
Yairo Moreno Helsingborg Ativo 101 / 106 40% 1 09.10.2026 -
Sota Kitano Red Bull Salzburg Ativo 108 / 113 40% 1 08.10.2026 -
Emmanuel Boateng Hapoel Tel Aviv Ativo 108 / 117 40% 1 08.10.2026 -
Harry Toffolo Charlotte Football Club Ativo 135 / 116 40% 1 06.10.2026 -
Nobuteru Nakagawa Kashiwa Reysol Ativo 131 / 125 40% 1 06.10.2026 -
Paulos Abraham Hammarby Ativo 105 / 124 40% 1 04.10.2026 -
Emmanuel Ekong Malmo FF Ativo 102 / 117 40% 1 04.10.2026 -
Hamzat Ojediran Colorado Rapids Ativo 135 / 114 40% 1 03.10.2026 -
Brayan León Mamelodi Sundowns Ativo 106 / 125 40% 1 03.10.2026 -
Miguel Pereira Persebaya Ativo 100 / 115 40% 1 26.09.2026 -
Chinedu Geoffrey Krylya Sovetov Ativo 111 / 117 40% 1 24.09.2026 -
Michele Šego Hajduk Split Ativo 110 / 119 40% 1 24.09.2026 -
Max Fenger IFK Goteborg Ativo 119 / 124 40% 1 23.09.2026 -
Yuri Lara Jubilo Iwata Ativo 138 / 133 40% 2 22.09.2026 -
Tio Cipot NK Maribor Ativo 112 / 118 40% 1 21.09.2026 -
Husain Norchayev Navbahor Ativo 118 / 107 40% 1 19.09.2026 -
Harold Santiago Mosquera Cerro Porteno Ativo 135 / 108 40% 1 16.09.2026 -
Akito Suzuki Sanfrecce Hiroshima Ativo 121 / 119 40% 1 16.09.2026 -
Deniz Hümmet Gamba Osaka Ativo 125 / 121 40% 1 11.09.2026 -
Daiju Sasaki Vissel Kobe Ativo 109 / 113 40% 2 09.09.2026 -
Daniel Pereira CF Montreal Ativo 133 / 115 40% 1 08.09.2026 -
Jan Van Den Bergh Jubilo Iwata Ativo 118 / 115 40% 1 26.08.2026 -
Koki Kumasaka Kashiwa Reysol Ativo 121 / 127 40% 1 26.08.2026 -
Kohei Okuno Avispa Fukuoka Ativo 120 / 129 40% 1 24.08.2026 -
Cristian Roldan Seattle Sounders Ativo 115 / 117 40% 1 24.08.2026 -
Juan Camilo Pérez Carabobo Ativo 122 / 107 40% 1 23.08.2026 -
Kei Chinen Yokohama F. Marinos Ativo 113 / 117 40% 1 22.08.2026 -
Reon Yamahara Kawasaki Frontale Ativo 130 / 120 40% 1 21.08.2026 -
Naomichi Ueda Kashima Antlers Ativo 127 / 142 40% 1 21.08.2026 -
Percy Mkhize Black Aces Ativo 107 / 129 40% 1 17.08.2026 -
Brandon Vázquez Austin FC Ativo 106 / 108 40% 1 10.08.2026 -
Sam Surridge Nashville SC Ativo 125 / 142 40% 1 10.08.2026 -
Asahi Uenaka Gamba Osaka Ativo 111 / 122 40% 1 07.08.2026 -
Gerard Deulofeu Slavia Prague Ativo 111 / 120 40% 1 06.08.2026 -
Dor Turgeman New England Revolution Ativo 137 / 138 40% 1 03.08.2026 -
Jeremy Ebobisse Los Angeles Football Club Ativo 117 / 121 40% 1 03.08.2026 -
Oriol Rey Levante Ativo 137 / 121 40% 1 01.08.2026 -
Nico Elvedi Leeds United Ativo 135 / 135 40% 1 01.08.2026 -